Time;durP1;ratioP1;P1;durP2;ratioP2;P2;SDS_P1;SDS_P2;PMS_P1;PMS_P2;Temp;Humidity;BMP_temperature;BMP_pressure;BME280_temperature;BME280_humidity;BME280_pressure;Samples;Min_cycle;Max_cycle;Signal;HPM_P1;HPM_P2
2022/09/25 00:00:49;;;;;;;11.68;8.88;;;10.90;99.90;;;;;;4975937;28;20273;-89
2022/09/25 00:03:16;;;;;;;11.63;9.27;;;10.90;99.90;;;;;;4927072;29;20055;-87
2022/09/25 00:05:44;;;;;;;10.38;9.20;;;10.90;99.90;;;;;;4923025;29;20047;-90
2022/09/25 00:08:11;;;;;;;12.38;9.52;;;10.90;99.90;;;;;;4960716;28;20061;-87
2022/09/25 00:10:49;;;;;;;14.60;9.70;;;10.90;99.90;;;;;;4924048;29;20040;-89
2022/09/25 00:13:16;;;;;;;15.98;9.32;;;10.90;99.90;;;;;;4938535;29;20047;-88
2022/09/25 00:15:51;;;;;;;12.05;9.60;;;10.90;99.90;;;;;;4938301;29;20032;-87
2022/09/25 00:19:48;;;;;;;15.93;11.80;;;10.90;99.90;;;;;;4954580;29;20103;-88
2022/09/25 00:21:04;;;;;;;15.65;12.65;;;10.90;99.90;;;;;;4946171;29;20588;-87
2022/09/25 00:23:32;;;;;;;16.77;11.80;;;10.90;99.90;;;;;;4941616;29;20031;-87
2022/09/25 00:25:58;;;;;;;14.85;11.27;;;10.90;99.90;;;;;;4938977;29;20060;-88
2022/09/25 00:28:26;;;;;;;15.07;10.82;;;11.00;99.90;;;;;;4952213;28;20032;-88
2022/09/25 00:30:51;;;;;;;17.80;12.18;;;10.90;99.90;;;;;;4943905;29;20068;-87
2022/09/25 00:33:17;;;;;;;14.57;10.93;;;10.90;99.90;;;;;;4945858;29;20043;-88
2022/09/25 00:35:43;;;;;;;15.15;11.35;;;10.90;99.90;;;;;;4924250;29;20500;-86
2022/09/25 00:38:09;;;;;;;14.38;10.35;;;10.90;99.90;;;;;;4954231;28;20113;-87
2022/09/25 00:40:34;;;;;;;13.98;11.02;;;10.80;99.90;;;;;;4928158;29;20076;-86
2022/09/25 00:43:00;;;;;;;14.18;10.23;;;10.80;99.90;;;;;;4945050;29;20035;-86
2022/09/25 00:45:26;;;;;;;20.33;13.75;;;10.80;99.90;;;;;;4911943;29;20051;-87
2022/09/25 00:48:00;;;;;;;18.10;13.07;;;10.70;99.90;;;;;;4933337;29;20039;-87
2022/09/25 00:50:55;;;;;;;15.45;12.00;;;10.60;99.90;;;;;;4914342;29;20044;-85
2022/09/25 00:53:26;;;;;;;14.13;11.32;;;10.70;99.90;;;;;;4905281;29;20040;-85
2022/09/25 00:55:53;;;;;;;13.10;9.57;;;10.60;99.90;;;;;;4934993;29;20032;-86
2022/09/25 00:58:22;;;;;;;10.80;8.45;;;10.60;99.90;;;;;;4946881;28;20028;-86
2022/09/25 01:00:50;;;;;;;9.95;7.72;;;10.60;99.90;;;;;;4933962;28;20046;-88
2022/09/25 01:03:17;;;;;;;10.77;7.38;;;10.60;99.90;;;;;;4919714;29;20134;-88
2022/09/25 01:05:44;;;;;;;11.60;8.15;;;10.50;99.90;;;;;;4946799;29;20035;-87
2022/09/25 01:08:15;;;;;;;12.60;8.52;;;10.50;99.90;;;;;;4939311;29;20123;-87
2022/09/25 01:10:41;;;;;;;11.52;8.68;;;10.50;99.90;;;;;;4933685;28;20198;-89
2022/09/25 01:13:08;;;;;;;15.88;9.32;;;10.50;99.90;;;;;;4950957;29;20043;-86
2022/09/25 01:16:02;;;;;;;14.45;10.38;;;10.60;99.90;;;;;;4944683;28;20115;-86
2022/09/25 01:18:47;;;;;;;24.02;15.68;;;10.60;99.90;;;;;;4909169;29;20127;-86
2022/09/25 01:21:23;;;;;;;27.85;17.23;;;10.50;99.90;;;;;;4937339;29;20123;-87
2022/09/25 01:24:43;;;;;;;30.13;17.73;;;10.50;99.90;;;;;;4974763;28;20036;-86
2022/09/25 01:27:34;;;;;;;89.60;16.52;;;10.60;99.90;;;;;;4953391;29;20027;-89
2022/09/25 01:30:06;;;;;;;34.85;16.95;;;10.50;99.90;;;;;;4926426;29;20036;-88
2022/09/25 01:32:53;;;;;;;94.40;18.58;;;10.40;99.90;;;;;;4908992;29;20028;-88
2022/09/25 01:35:36;;;;;;;43.78;19.23;;;10.30;99.90;;;;;;4968475;28;20028;-88
2022/09/25 01:38:14;;;;;;;30.83;18.40;;;10.30;99.90;;;;;;4970119;28;20189;-89
2022/09/25 01:41:14;;;;;;;27.33;16.48;;;10.30;99.90;;;;;;4940767;29;20066;-87
2022/09/25 01:43:49;;;;;;;12.98;8.77;;;10.30;99.90;;;;;;4964111;28;20028;-88
2022/09/25 01:46:24;;;;;;;13.32;9.57;;;10.30;99.90;;;;;;4940208;29;20146;-88
2022/09/25 01:48:59;;;;;;;37.05;16.73;;;10.30;99.90;;;;;;4961518;29;20043;-87
2022/09/25 01:51:38;;;;;;;26.48;15.30;;;10.20;99.90;;;;;;4956309;29;20032;-88
2022/09/25 01:54:11;;;;;;;19.27;12.80;;;10.30;99.90;;;;;;4933627;29;20032;-89
2022/09/25 01:57:03;;;;;;;34.33;14.75;;;10.30;99.90;;;;;;4978427;28;20031;-85
2022/09/25 01:59:45;;;;;;;20.98;13.98;;;10.30;99.90;;;;;;4932369;29;20036;-88
2022/09/25 02:02:18;;;;;;;33.92;16.45;;;10.30;99.90;;;;;;4944514;29;20062;-89
2022/09/25 02:05:09;;;;;;;32.95;17.30;;;10.40;99.90;;;;;;4941394;29;20072;-88
2022/09/25 02:07:42;;;;;;;48.47;17.65;;;10.30;99.90;;;;;;4935725;29;20091;-88
2022/09/25 02:10:13;;;;;;;43.95;18.55;;;10.30;99.90;;;;;;4950556;29;20038;-88
2022/09/25 02:12:45;;;;;;;51.35;19.17;;;10.30;99.90;;;;;;4954195;29;20057;-88
2022/09/25 02:15:19;;;;;;;33.97;19.63;;;10.30;99.90;;;;;;4945448;29;20039;-88
2022/09/25 02:20:43;;;;;;;38.42;20.13;;;10.20;99.90;;;;;;4942268;29;20031;-88
2022/09/25 02:23:32;;;;;;;34.80;20.02;;;10.20;99.90;;;;;;4975971;28;20046;-88
2022/09/25 02:26:10;;;;;;;40.15;21.42;;;10.20;99.90;;;;;;4935017;29;20040;-87
2022/09/25 02:28:35;;;;;;;34.67;20.25;;;10.30;99.90;;;;;;4917416;29;20097;-87
2022/09/25 02:31:06;;;;;;;34.25;20.67;;;10.20;99.90;;;;;;4905619;29;20079;-87
2022/09/25 02:33:32;;;;;;;36.53;20.88;;;10.30;99.90;;;;;;4957058;28;20087;-87
2022/09/25 02:36:02;;;;;;;35.15;19.95;;;10.30;99.90;;;;;;4928474;29;20126;-88
2022/09/25 02:38:30;;;;;;;32.92;19.95;;;10.40;99.90;;;;;;4933088;29;20047;-87
2022/09/25 02:41:03;;;;;;;32.10;19.85;;;10.40;99.90;;;;;;4941045;28;20039;-87
2022/09/25 02:44:02;;;;;;;38.08;21.73;;;10.40;99.90;;;;;;4927719;29;20027;-87
2022/09/25 02:46:27;;;;;;;41.78;21.98;;;10.50;99.90;;;;;;4946235;29;20122;-86
2022/09/25 02:49:14;;;;;;;35.35;20.48;;;10.50;99.90;;;;;;4933683;29;20512;-86
2022/09/25 02:52:04;;;;;;;38.42;21.45;;;10.50;99.90;;;;;;4912849;29;20048;-86
2022/09/25 02:54:36;;;;;;;33.42;19.58;;;10.50;99.90;;;;;;4937007;29;20476;-86
2022/09/25 02:57:31;;;;;;;34.88;19.50;;;10.60;99.90;;;;;;4931849;29;20070;-86
2022/09/25 03:00:02;;;;;;;21.90;13.98;;;10.60;99.90;;;;;;4937043;29;20098;-86
2022/09/25 03:02:29;;;;;;;9.23;7.63;;;10.70;99.90;;;;;;4916745;29;20036;-85
2022/09/25 03:04:56;;;;;;;16.10;7.43;;;10.70;99.90;;;;;;4932085;29;20404;-86
2022/09/25 03:07:23;;;;;;;9.60;6.82;;;10.80;99.90;;;;;;4965784;28;20027;-86
2022/09/25 03:09:51;;;;;;;12.30;6.15;;;10.70;99.90;;;;;;4966467;28;20134;-87
2022/09/25 03:12:17;;;;;;;9.40;6.90;;;10.80;99.90;;;;;;4921274;29;20504;-87
2022/09/25 03:14:43;;;;;;;10.25;7.93;;;10.80;99.90;;;;;;4953282;28;20036;-87
2022/09/25 03:17:12;;;;;;;9.27;7.07;;;10.80;99.90;;;;;;4935209;29;20027;-87
2022/09/25 03:19:37;;;;;;;11.63;8.20;;;10.70;99.90;;;;;;4934305;29;20097;-85
2022/09/25 03:22:03;;;;;;;10.10;7.78;;;10.80;99.90;;;;;;4927368;29;20488;-84
2022/09/25 03:24:30;;;;;;;11.15;7.25;;;10.80;99.90;;;;;;4934012;29;21049;-86
2022/09/25 03:26:56;;;;;;;8.20;6.15;;;10.80;99.90;;;;;;4963755;28;20042;-87
2022/09/25 03:29:22;;;;;;;10.13;7.85;;;10.80;99.90;;;;;;4939570;29;20051;-87
2022/09/25 03:31:48;;;;;;;11.15;8.38;;;10.80;99.90;;;;;;4951040;29;20031;-88
2022/09/25 03:34:16;;;;;;;16.50;10.52;;;10.70;99.90;;;;;;4927860;29;20031;-87
2022/09/25 03:36:46;;;;;;;28.45;16.92;;;10.70;99.90;;;;;;4949297;29;20529;-88
2022/09/25 03:39:14;;;;;;;46.42;24.25;;;10.70;99.90;;;;;;4927798;29;20102;-88
2022/09/25 03:41:42;;;;;;;33.80;18.25;;;10.80;99.90;;;;;;4954469;29;20024;-88
2022/09/25 03:44:07;;;;;;;48.03;25.52;;;10.80;99.90;;;;;;4939217;29;20064;-86
2022/09/25 03:46:34;;;;;;;48.83;25.23;;;10.90;99.90;;;;;;4959689;28;20035;-87
2022/09/25 03:49:01;;;;;;;52.90;26.00;;;10.90;99.90;;;;;;4928898;29;20032;-86
2022/09/25 03:51:28;;;;;;;48.47;23.52;;;10.90;99.90;;;;;;4936591;29;20493;-87
2022/09/25 03:53:54;;;;;;;26.67;14.55;;;10.90;99.90;;;;;;4921917;29;20040;-87
2022/09/25 03:56:23;;;;;;;12.93;9.73;;;10.90;99.90;;;;;;4939939;29;20101;-87
2022/09/25 03:58:51;;;;;;;14.25;10.25;;;10.90;99.90;;;;;;4973816;28;20031;-87
2022/09/25 04:01:18;;;;;;;20.73;11.80;;;10.90;99.90;;;;;;4952968;29;20535;-88
2022/09/25 04:03:45;;;;;;;33.30;18.80;;;10.90;99.90;;;;;;4949877;29;20050;-89
2022/09/25 04:06:13;;;;;;;47.42;22.73;;;10.90;99.90;;;;;;4941461;29;20043;-88
2022/09/25 04:08:38;;;;;;;50.65;25.17;;;10.90;99.90;;;;;;4962485;28;20491;-87
2022/09/25 04:11:05;;;;;;;61.63;28.30;;;10.90;99.90;;;;;;4955319;28;20035;-87
2022/09/25 04:13:35;;;;;;;51.35;24.95;;;10.90;99.90;;;;;;4944148;28;20024;-87
2022/09/25 04:16:02;;;;;;;37.53;20.13;;;11.00;99.90;;;;;;4943342;29;20043;-87
2022/09/25 04:18:30;;;;;;;23.25;14.52;;;11.00;99.90;;;;;;4960616;29;20024;-87
2022/09/25 04:21:00;;;;;;;18.20;13.05;;;11.00;99.90;;;;;;4945654;29;20039;-88
2022/09/25 04:23:26;;;;;;;48.92;23.00;;;10.90;99.90;;;;;;4967772;28;20040;-88
2022/09/25 04:25:53;;;;;;;57.00;26.45;;;11.00;99.90;;;;;;4956691;29;20736;-88
2022/09/25 04:28:21;;;;;;;61.47;27.70;;;11.00;99.90;;;;;;4951570;28;20023;-88
2022/09/25 04:30:47;;;;;;;59.83;27.52;;;11.00;99.90;;;;;;4953275;29;20032;-88
2022/09/25 04:35:58;;;;;;;60.33;27.90;;;11.00;99.90;;;;;;4930941;29;20460;-89
2022/09/25 04:38:24;;;;;;;60.03;26.40;;;11.00;99.90;;;;;;4914492;29;20036;-89
2022/09/25 04:40:50;;;;;;;63.17;28.95;;;11.10;99.90;;;;;;4944456;29;20480;-87
2022/09/25 04:43:15;;;;;;;63.65;28.20;;;11.10;99.90;;;;;;4943224;29;20530;-89
2022/09/25 04:45:41;;;;;;;64.45;28.38;;;11.10;99.90;;;;;;4948364;29;20039;-87
2022/09/25 04:48:07;;;;;;;63.88;28.77;;;11.10;99.90;;;;;;4960663;29;20051;-87
2022/09/25 04:50:33;;;;;;;58.72;26.83;;;11.10;99.90;;;;;;4941519;29;20091;-88
2022/09/25 04:53:03;;;;;;;54.95;26.80;;;11.10;99.90;;;;;;4946111;29;20119;-88
2022/09/25 04:55:29;;;;;;;53.88;26.13;;;11.20;99.90;;;;;;4927182;29;20701;-88
2022/09/25 04:57:58;;;;;;;53.47;26.48;;;11.20;99.90;;;;;;4946224;28;20036;-87
2022/09/25 05:00:29;;;;;;;58.15;25.90;;;11.20;99.90;;;;;;4926141;29;20044;-87
2022/09/25 05:02:55;;;;;;;55.28;26.92;;;11.30;99.90;;;;;;4941635;29;20488;-88
2022/09/25 05:05:26;;;;;;;53.45;27.45;;;11.30;99.90;;;;;;4958384;28;20031;-88
2022/09/25 05:07:56;;;;;;;56.63;26.33;;;11.30;99.90;;;;;;4959614;29;20055;-88
2022/09/25 05:10:26;;;;;;;57.45;27.48;;;11.30;99.90;;;;;;4956262;28;20024;-88
2022/09/25 05:13:03;;;;;;;54.67;25.83;;;11.30;99.90;;;;;;4953319;29;20678;-87
2022/09/25 05:15:31;;;;;;;56.38;27.05;;;11.20;99.90;;;;;;4969098;28;20031;-87
2022/09/25 05:18:25;;;;;;;63.63;28.17;;;11.20;99.90;;;;;;4942134;29;20531;-87
2022/09/25 05:20:52;;;;;;;59.90;27.85;;;11.20;99.90;;;;;;4955182;29;20036;-88
2022/09/25 05:23:19;;;;;;;61.28;28.15;;;11.20;99.90;;;;;;4933003;29;20032;-88
2022/09/25 05:25:53;;;;;;;57.95;27.10;;;11.20;99.90;;;;;;4937335;29;20110;-88
2022/09/25 05:28:19;;;;;;;60.30;27.63;;;11.20;99.90;;;;;;4937920;29;20172;-88
2022/09/25 05:30:45;;;;;;;60.90;27.27;;;11.30;99.90;;;;;;4941256;29;20047;-88
2022/09/25 05:33:11;;;;;;;64.93;28.73;;;11.30;99.90;;;;;;4960326;28;20031;-89
2022/09/25 05:35:37;;;;;;;60.15;28.15;;;11.30;99.90;;;;;;4934574;29;20407;-88
2022/09/25 05:38:05;;;;;;;62.15;27.33;;;11.40;99.90;;;;;;4937794;29;20036;-88
2022/09/25 05:40:31;;;;;;;61.47;26.73;;;11.40;99.90;;;;;;4937590;29;20036;-88
2022/09/25 05:42:58;;;;;;;66.25;29.17;;;11.40;99.90;;;;;;4930888;29;20054;-88
2022/09/25 05:45:24;;;;;;;56.72;26.67;;;11.40;99.90;;;;;;4921880;29;20518;-88
2022/09/25 05:48:05;;;;;;;60.70;27.70;;;11.40;99.90;;;;;;4906734;29;20044;-88
2022/09/25 05:50:31;;;;;;;62.00;28.25;;;11.40;99.90;;;;;;4940959;29;20063;-86
2022/09/25 05:53:02;;;;;;;69.50;28.70;;;11.50;99.90;;;;;;4949444;29;20035;-85
2022/09/25 05:55:29;;;;;;;69.70;29.65;;;11.50;99.90;;;;;;4925151;29;20081;-87
2022/09/25 05:58:02;;;;;;;69.47;28.70;;;11.40;99.90;;;;;;4951221;28;20029;-86
2022/09/25 06:00:31;;;;;;;65.93;30.90;;;11.40;99.90;;;;;;4923136;28;20491;-86
2022/09/25 06:02:58;;;;;;;68.75;30.73;;;11.30;99.90;;;;;;4960724;28;20255;-86
2022/09/25 06:05:24;;;;;;;62.17;28.30;;;11.30;99.90;;;;;;4921493;29;20035;-87
2022/09/25 06:07:54;;;;;;;61.50;27.48;;;11.30;99.90;;;;;;4944640;29;20130;-88
2022/09/25 06:10:20;;;;;;;60.63;27.35;;;11.30;99.90;;;;;;4906170;29;20060;-88
2022/09/25 06:12:46;;;;;;;56.65;26.73;;;11.30;99.90;;;;;;4924652;29;20031;-89
2022/09/25 06:15:12;;;;;;;59.83;26.50;;;11.30;99.90;;;;;;4939912;29;20027;-88
2022/09/25 06:17:37;;;;;;;60.08;27.30;;;11.30;99.90;;;;;;4926489;29;20051;-88
2022/09/25 06:20:04;;;;;;;58.35;26.50;;;11.40;99.90;;;;;;4928437;29;20067;-86
2022/09/25 06:22:29;;;;;;;51.60;25.85;;;11.40;99.90;;;;;;4941081;29;20044;-88
2022/09/25 06:24:55;;;;;;;53.67;25.15;;;11.40;99.90;;;;;;4943303;29;20028;-85
2022/09/25 06:27:21;;;;;;;54.15;25.85;;;11.50;99.90;;;;;;4929852;29;20043;-87
2022/09/25 06:29:47;;;;;;;59.63;25.80;;;11.50;99.90;;;;;;4948777;29;20410;-86
2022/09/25 06:32:13;;;;;;;47.53;23.98;;;11.60;99.90;;;;;;4947165;29;20217;-88
2022/09/25 06:34:39;;;;;;;50.85;25.98;;;11.70;99.90;;;;;;4944470;29;20035;-86
2022/09/25 06:37:05;;;;;;;52.65;27.00;;;11.70;99.90;;;;;;4928829;29;20036;-87
2022/09/25 06:39:32;;;;;;;57.67;28.60;;;11.70;99.90;;;;;;4944931;29;20027;-87
2022/09/25 06:41:58;;;;;;;55.15;25.67;;;11.70;99.90;;;;;;4944552;29;20042;-87
2022/09/25 06:44:24;;;;;;;50.65;24.63;;;11.70;99.90;;;;;;4941066;29;20091;-86
2022/09/25 06:46:53;;;;;;;48.45;24.77;;;11.70;99.90;;;;;;4958296;29;20032;-86
2022/09/25 06:49:19;;;;;;;45.90;23.95;;;11.70;99.90;;;;;;4943400;29;20027;-85
2022/09/25 06:51:45;;;;;;;56.28;25.83;;;11.70;99.90;;;;;;4923698;29;20023;-85
2022/09/25 06:54:11;;;;;;;53.00;25.65;;;11.70;99.90;;;;;;4963647;28;20031;-87
2022/09/25 06:56:37;;;;;;;57.45;27.77;;;11.80;99.90;;;;;;4932052;29;20746;-86
2022/09/25 06:59:03;;;;;;;60.05;26.70;;;11.80;99.90;;;;;;4923375;29;20016;-87
2022/09/25 07:01:31;;;;;;;58.72;26.85;;;11.80;99.90;;;;;;4932675;29;20039;-88
2022/09/25 07:03:57;;;;;;;57.70;26.92;;;11.80;99.90;;;;;;4947218;28;20119;-88
2022/09/25 07:06:27;;;;;;;53.53;26.52;;;11.80;99.90;;;;;;4932173;28;20122;-87
2022/09/25 07:08:55;;;;;;;50.67;25.48;;;11.70;99.90;;;;;;4950056;28;20492;-88
2022/09/25 07:11:30;;;;;;;56.85;27.02;;;11.70;99.90;;;;;;4918302;29;20032;-87
2022/09/25 07:13:56;;;;;;;63.10;27.70;;;11.70;99.90;;;;;;4949297;29;20119;-86
2022/09/25 07:16:26;;;;;;;60.35;27.23;;;11.60;99.90;;;;;;4932097;29;20103;-88
2022/09/25 07:18:54;;;;;;;56.80;26.60;;;11.60;99.90;;;;;;4946512;29;20382;-87
2022/09/25 07:21:22;;;;;;;60.45;28.35;;;11.60;99.90;;;;;;4944465;29;20559;-86
2022/09/25 07:23:49;;;;;;;58.55;27.63;;;11.70;99.90;;;;;;4944367;28;20447;-87
2022/09/25 07:26:21;;;;;;;55.05;26.38;;;11.70;99.90;;;;;;4948393;29;20390;-86
2022/09/25 07:28:58;;;;;;;54.75;24.27;;;11.70;99.90;;;;;;4949317;29;20484;-87
2022/09/25 07:31:29;;;;;;;53.83;28.23;;;11.80;99.90;;;;;;4933229;28;20530;-86
2022/09/25 07:33:56;;;;;;;49.03;26.10;;;11.80;99.90;;;;;;4949460;28;20397;-87
2022/09/25 07:36:22;;;;;;;49.42;23.70;;;11.80;99.90;;;;;;4936560;29;20036;-86
2022/09/25 07:38:52;;;;;;;52.72;24.58;;;11.90;99.90;;;;;;4934828;29;20039;-88
2022/09/25 07:41:21;;;;;;;52.58;26.85;;;11.80;99.90;;;;;;4941474;29;20068;-86
2022/09/25 07:43:55;;;;;;;56.33;25.95;;;11.70;99.90;;;;;;4934172;29;20063;-85
2022/09/25 07:46:21;;;;;;;62.17;27.58;;;11.60;99.90;;;;;;4945872;28;20024;-87
2022/09/25 07:48:48;;;;;;;61.70;27.80;;;11.60;99.90;;;;;;4934459;29;20070;-87
2022/09/25 07:51:19;;;;;;;58.58;27.02;;;11.60;99.90;;;;;;4942381;28;20040;-87
2022/09/25 07:53:45;;;;;;;65.40;27.92;;;11.70;99.90;;;;;;4940573;29;20028;-85
2022/09/25 07:56:11;;;;;;;64.72;27.77;;;11.70;99.90;;;;;;4941521;29;20035;-85
2022/09/25 07:58:37;;;;;;;68.30;28.90;;;11.80;99.90;;;;;;4944342;29;20035;-86
2022/09/25 08:01:05;;;;;;;63.63;27.98;;;11.80;99.90;;;;;;4933825;29;20487;-85
2022/09/25 08:03:31;;;;;;;60.80;28.63;;;11.90;99.90;;;;;;4939231;29;20028;-84
2022/09/25 08:05:58;;;;;;;57.42;27.90;;;11.90;99.90;;;;;;4925882;29;20500;-86
2022/09/25 08:08:25;;;;;;;60.10;28.20;;;11.90;99.90;;;;;;4927221;29;20032;-83
2022/09/25 08:10:51;;;;;;;60.45;27.38;;;12.00;99.90;;;;;;4936053;29;20042;-85
2022/09/25 08:13:17;;;;;;;63.17;29.77;;;12.00;99.90;;;;;;4922177;29;20032;-84
2022/09/25 08:15:43;;;;;;;58.17;28.83;;;12.00;99.90;;;;;;4928093;29;20030;-85
2022/09/25 08:18:11;;;;;;;60.35;28.52;;;12.00;99.90;;;;;;4943813;28;20420;-86
2022/09/25 08:20:40;;;;;;;58.78;28.63;;;12.10;99.90;;;;;;4928761;29;20036;-85
2022/09/25 08:23:07;;;;;;;65.82;28.92;;;12.00;99.90;;;;;;4943366;28;20547;-85
2022/09/25 08:25:33;;;;;;;74.35;30.15;;;12.00;99.90;;;;;;4930350;29;20070;-86
2022/09/25 08:27:58;;;;;;;65.22;28.60;;;12.00;99.90;;;;;;4933657;29;20457;-84
2022/09/25 08:30:24;;;;;;;61.17;29.88;;;12.00;99.90;;;;;;4917015;29;20118;-85
2022/09/25 08:32:51;;;;;;;63.33;29.30;;;12.10;99.90;;;;;;4904993;29;20036;-84
2022/09/25 08:35:17;;;;;;;61.50;29.05;;;12.00;99.90;;;;;;4917920;29;20024;-86
2022/09/25 08:37:47;;;;;;;65.35;28.52;;;12.00;99.90;;;;;;4920139;29;20119;-85
2022/09/25 08:40:25;;;;;;;65.57;30.73;;;12.00;99.90;;;;;;4936819;29;20059;-85
2022/09/25 08:42:53;;;;;;;58.75;28.58;;;12.10;99.90;;;;;;4934230;29;20036;-86
2022/09/25 08:51:13;;;;;;;58.03;29.73;;;12.10;99.90;;;;;;4940268;29;20031;-86
2022/09/25 08:53:40;;;;;;;63.58;29.75;;;12.10;99.90;;;;;;4933919;29;20086;-86
2022/09/25 08:56:14;;;;;;;62.17;29.73;;;12.10;99.90;;;;;;4933769;29;20567;-86
2022/09/25 08:59:09;;;;;;;74.70;34.95;;;12.10;99.90;;;;;;4915478;29;20052;-87
2022/09/25 09:01:43;;;;;;;67.78;31.90;;;12.30;99.90;;;;;;4939732;28;20032;-86
2022/09/25 09:04:25;;;;;;;60.72;28.98;;;12.40;99.90;;;;;;4935017;29;20040;-88
2022/09/25 09:07:00;;;;;;;57.35;28.23;;;12.50;99.90;;;;;;4945136;29;20035;-85
2022/09/25 09:09:34;;;;;;;57.25;28.38;;;12.60;99.90;;;;;;4945487;28;20038;-85
2022/09/25 09:12:06;;;;;;;59.90;28.95;;;12.70;99.90;;;;;;4922519;29;20032;-86
2022/09/25 09:14:39;;;;;;;57.30;27.70;;;12.90;99.90;;;;;;4953115;28;20034;-85
2022/09/25 09:17:14;;;;;;;48.65;26.48;;;13.10;99.90;;;;;;4937302;29;20122;-85
2022/09/25 09:19:41;;;;;;;48.40;26.85;;;13.20;99.90;;;;;;4918672;29;20103;-85
2022/09/25 09:22:12;;;;;;;50.90;25.42;;;13.20;99.90;;;;;;4935462;29;20135;-87
2022/09/25 09:24:55;;;;;;;46.40;24.17;;;13.30;99.90;;;;;;4904382;29;20122;-86
2022/09/25 09:27:32;;;;;;;47.15;23.80;;;13.40;99.90;;;;;;4945083;28;20498;-85
2022/09/25 09:30:17;;;;;;;42.30;24.40;;;13.50;99.90;;;;;;4946036;28;20038;-85
2022/09/25 09:32:49;;;;;;;44.92;24.90;;;13.40;99.90;;;;;;4946078;28;20087;-87
2022/09/25 09:35:31;;;;;;;42.08;24.38;;;13.50;99.90;;;;;;4930755;29;20114;-84
2022/09/25 09:38:13;;;;;;;36.00;22.63;;;13.60;99.90;;;;;;4947188;28;20034;-85
2022/09/25 09:40:39;;;;;;;34.42;20.40;;;13.70;99.90;;;;;;4973319;28;20040;-85
2022/09/25 09:43:30;;;;;;;32.30;19.75;;;13.60;99.90;;;;;;4944368;28;20042;-85
2022/09/25 09:46:14;;;;;;;35.88;21.40;;;13.50;99.90;;;;;;4924014;29;20051;-84
2022/09/25 09:49:01;;;;;;;32.30;20.52;;;13.50;99.90;;;;;;4949274;29;20118;-85
2022/09/25 09:51:44;;;;;;;35.28;20.83;;;13.60;99.90;;;;;;4938601;29;20036;-85
2022/09/25 09:54:16;;;;;;;34.10;20.70;;;13.60;99.90;;;;;;4932436;29;20072;-85
2022/09/25 09:56:46;;;;;;;34.40;20.73;;;13.60;99.90;;;;;;4928705;29;20739;-84
2022/09/25 09:59:21;;;;;;;37.40;21.83;;;13.60;99.90;;;;;;4934659;29;20036;-84
2022/09/25 10:01:59;;;;;;;31.47;21.00;;;13.80;99.90;;;;;;4949517;29;20089;-84
2022/09/25 10:04:32;;;;;;;30.73;20.27;;;14.10;99.90;;;;;;4951764;29;20338;-85
2022/09/25 10:07:06;;;;;;;29.05;18.67;;;14.20;99.90;;;;;;4935500;29;20043;-85
2022/09/25 10:09:32;;;;;;;27.52;18.80;;;14.20;99.90;;;;;;4952310;28;20484;-85
2022/09/25 10:12:29;;;;;;;26.15;18.48;;;14.30;99.90;;;;;;4922451;29;20031;-83
2022/09/25 10:14:58;;;;;;;25.48;17.63;;;14.50;99.90;;;;;;4937719;29;20040;-85
2022/09/25 10:17:27;;;;;;;25.48;17.88;;;14.40;99.90;;;;;;4925691;29;20067;-85
2022/09/25 10:19:59;;;;;;;30.55;18.70;;;14.50;99.90;;;;;;4932789;29;20126;-84
2022/09/25 10:22:31;;;;;;;26.95;19.05;;;14.60;99.90;;;;;;4957991;28;20422;-84
2022/09/25 10:25:02;;;;;;;25.25;17.20;;;14.70;99.90;;;;;;4947600;28;20526;-83
2022/09/25 10:27:40;;;;;;;25.95;17.30;;;14.80;99.90;;;;;;4903240;29;20044;-86
2022/09/25 10:30:20;;;;;;;23.20;15.38;;;14.80;99.90;;;;;;4949827;28;20135;-83
2022/09/25 10:33:14;;;;;;;23.15;16.27;;;14.80;99.90;;;;;;4942295;28;20035;-84
2022/09/25 10:35:45;;;;;;;23.92;14.55;;;14.90;99.90;;;;;;4933274;29;20115;-84
2022/09/25 10:38:23;;;;;;;19.30;14.25;;;15.00;99.90;;;;;;4920013;29;20388;-85
2022/09/25 10:41:18;;;;;;;20.65;13.98;;;15.00;99.90;;;;;;4928703;29;20102;-83
2022/09/25 10:43:59;;;;;;;22.77;14.63;;;14.90;99.90;;;;;;4935613;29;20563;-86
2022/09/25 10:52:18;;;;;;;20.38;13.23;;;15.00;99.90;;;;;;4910324;29;20042;-84
2022/09/25 10:54:44;;;;;;;17.90;12.55;;;15.20;99.90;;;;;;4940829;29;20058;-84
2022/09/25 10:57:37;;;;;;;15.68;11.27;;;15.30;99.90;;;;;;4955475;28;20038;-85
2022/09/25 11:00:22;;;;;;;19.23;12.57;;;15.20;99.90;;;;;;4933455;29;20031;-83
2022/09/25 11:02:52;;;;;;;16.42;12.43;;;15.30;99.90;;;;;;4947014;29;20078;-84
2022/09/25 11:05:27;;;;;;;17.65;12.57;;;15.30;99.90;;;;;;4930556;29;20039;-84
2022/09/25 11:07:56;;;;;;;17.02;12.70;;;15.40;99.90;;;;;;4946923;28;20039;-85
2022/09/25 11:11:01;;;;;;;17.67;13.00;;;15.50;99.90;;;;;;4930818;29;20051;-83
2022/09/25 11:13:46;;;;;;;18.30;13.05;;;15.50;99.90;;;;;;4944596;28;20042;-86
2022/09/25 11:16:12;;;;;;;20.85;13.88;;;15.40;99.90;;;;;;4920792;29;20032;-84
2022/09/25 11:18:44;;;;;;;15.82;11.88;;;15.50;99.90;;;;;;4914554;29;20048;-85
2022/09/25 11:21:39;;;;;;;20.52;14.48;;;15.60;99.90;;;;;;4922363;29;20032;-86
2022/09/25 11:24:45;;;;;;;17.38;12.57;;;15.50;99.90;;;;;;4932505;29;20043;-86
2022/09/25 11:27:19;;;;;;;20.42;13.93;;;15.60;99.90;;;;;;4969587;28;20032;-83
2022/09/25 11:30:06;;;;;;;18.48;13.63;;;15.60;99.90;;;;;;4947689;28;20406;-83
2022/09/25 11:32:47;;;;;;;21.50;13.82;;;15.70;99.90;;;;;;4946067;29;20264;-87
2022/09/25 11:35:20;;;;;;;19.77;13.88;;;15.70;99.90;;;;;;4946978;29;20110;-85
2022/09/25 11:38:11;;;;;;;18.85;13.52;;;15.60;99.90;;;;;;4931434;29;20096;-83
2022/09/25 11:41:11;;;;;;;19.95;14.20;;;15.70;99.90;;;;;;4915998;29;20171;-85
2022/09/25 11:44:08;;;;;;;18.00;12.13;;;15.70;99.90;;;;;;4957681;28;20035;-84
2022/09/25 11:46:55;;;;;;;11.65;8.80;;;15.70;99.90;;;;;;4922986;29;20036;-85
2022/09/25 11:49:33;;;;;;;13.45;10.15;;;15.60;99.90;;;;;;4957949;28;20043;-85
2022/09/25 11:52:18;;;;;;;12.70;9.30;;;15.60;99.90;;;;;;4921991;29;20067;-84
2022/09/25 11:54:51;;;;;;;12.30;9.70;;;15.60;99.90;;;;;;4930154;28;20118;-85
2022/09/25 11:57:51;;;;;;;12.18;8.75;;;15.50;99.90;;;;;;4947336;29;20031;-83
2022/09/25 12:00:19;;;;;;;10.77;8.18;;;15.50;99.90;;;;;;4944440;28;20488;-85
2022/09/25 12:03:02;;;;;;;12.50;8.95;;;15.60;99.90;;;;;;4951614;29;20079;-87
2022/09/25 12:05:35;;;;;;;10.25;8.23;;;15.60;99.90;;;;;;4950028;29;20036;-84
2022/09/25 12:08:36;;;;;;;12.38;8.48;;;15.80;99.90;;;;;;4948999;29;20059;-86
2022/09/25 12:11:28;;;;;;;11.55;9.00;;;16.10;99.90;;;;;;4959341;28;20042;-84
2022/09/25 12:14:27;;;;;;;9.38;7.78;;;16.50;99.90;;;;;;4939066;29;20035;-84
2022/09/25 12:17:28;;;;;;;11.13;8.18;;;16.90;99.90;;;;;;4941692;29;20379;-86
2022/09/25 12:20:41;;;;;;;12.27;9.00;;;17.30;99.90;;;;;;4933035;29;20587;-85
2022/09/25 12:23:22;;;;;;;11.40;7.85;;;17.50;99.90;;;;;;4903612;29;20044;-86
2022/09/25 12:26:18;;;;;;;10.82;8.00;;;17.40;99.90;;;;;;4942374;29;20594;-87
2022/09/25 12:29:24;;;;;;;11.90;8.85;;;17.40;99.90;;;;;;4964034;28;20035;-87
2022/09/25 12:32:12;;;;;;;10.27;8.63;;;17.20;99.90;;;;;;4949518;29;20035;-86
2022/09/25 12:34:51;;;;;;;9.82;6.90;;;17.10;99.90;;;;;;4939418;29;20590;-85
2022/09/25 12:37:23;;;;;;;13.57;7.43;;;16.80;99.90;;;;;;4953108;28;20034;-86
2022/09/25 12:40:04;;;;;;;8.48;7.10;;;16.60;99.90;;;;;;4967555;28;20042;-85
2022/09/25 12:42:33;;;;;;;16.08;8.70;;;16.30;99.90;;;;;;4946342;29;20040;-84
2022/09/25 12:45:04;;;;;;;16.13;11.10;;;16.10;99.90;;;;;;4955762;28;20041;-86
2022/09/25 12:47:45;;;;;;;11.13;8.93;;;15.60;99.90;;;;;;4938822;29;20032;-90
2022/09/25 12:50:17;;;;;;;9.85;7.63;;;15.10;99.90;;;;;;4930763;29;20059;-88
2022/09/25 12:52:52;;;;;;;7.13;6.22;;;14.70;99.90;;;;;;4941791;28;20027;-88
2022/09/25 12:55:30;;;;;;;5.68;4.72;;;14.40;99.90;;;;;;4935050;29;20054;-89
2022/09/25 12:58:11;;;;;;;7.63;4.68;;;14.10;99.90;;;;;;4931039;29;20087;-88
2022/09/25 13:00:41;;;;;;;4.88;4.00;;;13.90;99.90;;;;;;4950962;28;20091;-88
2022/09/25 13:03:21;;;;;;;8.55;4.05;;;13.60;99.90;;;;;;4937480;29;20039;-90
2022/09/25 13:05:55;;;;;;;7.40;4.65;;;13.50;99.90;;;;;;4939361;29;20042;-92
2022/09/25 13:08:43;;;;;;;8.02;3.60;;;13.30;99.90;;;;;;4954822;29;20055;-88
2022/09/25 13:11:24;;;;;;;7.30;3.42;;;13.10;99.90;;;;;;4926577;29;20517;-90
2022/09/25 13:13:52;;;;;;;5.72;2.95;;;12.90;99.90;;;;;;4934206;29;20507;-90
2022/09/25 13:16:19;;;;;;;3.25;2.90;;;12.80;99.90;;;;;;4951865;29;20031;-89
2022/09/25 13:19:10;;;;;;;6.00;3.28;;;12.70;99.90;;;;;;4937738;29;20103;-89